createdAt,value
2023-02-08T00:00:07.348Z,-3.19
2023-02-08T00:06:10.500Z,-3.22
2023-02-08T00:12:12.399Z,-3.27
2023-02-08T00:18:14.816Z,-3.16
2023-02-08T00:24:16.738Z,-3.29
2023-02-08T00:30:18.740Z,-3.21
2023-02-08T00:36:20.849Z,-3.23
2023-02-08T00:42:22.993Z,-3.20
2023-02-08T00:48:26.801Z,-3.19
2023-02-08T00:54:28.742Z,-3.25
2023-02-08T01:00:30.692Z,-3.38
2023-02-08T01:06:32.780Z,-3.41
2023-02-08T01:12:34.672Z,-3.39
2023-02-08T01:18:37.378Z,-3.27
2023-02-08T01:24:39.285Z,-3.51
2023-02-08T01:30:41.537Z,-3.50
2023-02-08T01:36:43.729Z,-3.48
2023-02-08T01:42:45.610Z,-3.48
2023-02-08T01:48:48.614Z,-3.63
2023-02-08T01:55:13.682Z,-3.74
2023-02-08T02:01:17.002Z,-3.76
2023-02-08T02:07:22.599Z,-3.78
2023-02-08T02:13:27.246Z,-3.84
2023-02-08T02:19:37.981Z,-3.80
2023-02-08T02:26:23.101Z,-3.78
2023-02-08T02:32:51.938Z,-3.98
2023-02-08T02:39:18.255Z,-3.99
2023-02-08T02:45:58.074Z,-4.02
2023-02-08T02:52:12.408Z,-4.17
2023-02-08T02:58:17.892Z,-4.26
2023-02-08T03:04:39.633Z,-4.20
2023-02-08T03:11:20.850Z,-4.23
2023-02-08T03:17:29.237Z,-4.24
2023-02-08T03:23:43.954Z,-4.20
2023-02-08T03:30:11.150Z,-4.17
2023-02-08T03:36:58.601Z,-4.24
2023-02-08T03:43:09.797Z,-4.19
2023-02-08T03:49:27.726Z,-4.11
2023-02-08T03:55:34.380Z,-4.12
2023-02-08T04:01:47.332Z,-4.22
2023-02-08T04:07:49.259Z,-4.22
2023-02-08T04:13:51.142Z,-4.25
2023-02-08T04:19:53.012Z,-4.26
2023-02-08T04:25:54.938Z,-4.29
2023-02-08T04:31:56.846Z,-4.25
2023-02-08T04:37:58.782Z,-4.25
2023-02-08T04:44:00.724Z,-4.22
2023-02-08T04:50:03.750Z,-4.18
2023-02-08T04:56:05.882Z,-4.20
2023-02-08T05:02:07.774Z,-4.28
2023-02-08T05:08:09.744Z,-4.29
2023-02-08T05:14:11.653Z,-4.16
2023-02-08T05:20:14.151Z,-4.13
2023-02-08T05:26:16.425Z,-4.06
2023-02-08T05:32:18.337Z,-4.09
2023-02-08T05:38:20.222Z,-4.13
2023-02-08T05:44:22.353Z,-4.16
2023-02-08T05:50:24.293Z,-4.21
2023-02-08T05:56:26.202Z,-4.25
2023-02-08T06:02:28.098Z,-4.17
2023-02-08T06:08:30.003Z,-4.15
2023-02-08T06:14:31.928Z,-4.12
2023-02-08T06:20:34.053Z,-4.12
2023-02-08T06:26:35.978Z,-4.08
2023-02-08T06:32:38.036Z,-4.21
2023-02-08T06:38:39.997Z,-4.00
2023-02-08T06:44:53.936Z,-3.93
2023-02-08T06:50:56.709Z,-3.88
2023-02-08T06:56:58.605Z,-3.90
2023-02-08T07:03:00.867Z,-3.93
2023-02-08T07:09:04.197Z,-3.85
2023-02-08T07:15:06.496Z,-3.83
2023-02-08T07:21:08.666Z,-3.75
2023-02-08T07:27:13.097Z,-3.58
2023-02-08T07:33:14.980Z,-3.49
2023-02-08T07:39:16.892Z,-3.30
2023-02-08T07:45:18.890Z,-3.35
2023-02-08T07:51:20.825Z,-3.11
2023-02-08T07:57:23.431Z,-3.09
2023-02-08T08:03:25.371Z,-2.99
2023-02-08T08:09:27.291Z,-2.85
2023-02-08T08:15:29.248Z,-2.87
2023-02-08T08:21:31.165Z,-2.76
2023-02-08T08:27:33.141Z,-2.58
2023-02-08T08:33:35.024Z,-2.67
2023-02-08T08:39:37.239Z,-2.57
2023-02-08T08:45:39.121Z,-2.46
2023-02-08T08:51:41.060Z,-2.23
2023-02-08T08:57:42.968Z,-1.95
2023-02-08T09:03:44.935Z,-1.91
2023-02-08T09:09:48.034Z,-1.79
2023-02-08T09:15:50.036Z,-1.44
2023-02-08T09:21:52.021Z,-0.94
2023-02-08T09:27:54.012Z,-0.46
2023-02-08T09:33:59.808Z,-0.39
2023-02-08T09:40:01.842Z,-0.35
2023-02-08T09:46:13.667Z,0.14
2023-02-08T09:52:21.734Z,0.29
2023-02-08T09:59:02.303Z,1.27
2023-02-08T10:05:11.403Z,2.01
2023-02-08T10:11:32.125Z,4.43
2023-02-08T10:18:11.962Z,4.33
2023-02-08T10:25:16.285Z,3.31
2023-02-08T10:31:58.372Z,3.07
2023-02-08T10:38:00.371Z,2.67
2023-02-08T10:44:07.910Z,2.32
2023-02-08T10:50:39.238Z,2.23
2023-02-08T10:56:58.171Z,2.14
2023-02-08T11:03:25.571Z,2.11
2023-02-08T11:09:29.557Z,2.31
2023-02-08T11:15:39.924Z,2.33
2023-02-08T11:21:42.245Z,2.40
2023-02-08T11:27:49.233Z,2.62
2023-02-08T11:34:11.352Z,2.85
2023-02-08T11:40:31.784Z,3.08
2023-02-08T11:46:36.430Z,4.40
2023-02-08T11:52:43.758Z,5.41
2023-02-08T11:59:14.981Z,5.25
2023-02-08T12:05:44.810Z,4.57
2023-02-08T12:11:52.702Z,4.48
2023-02-08T12:18:07.543Z,4.43
2023-02-08T12:24:31.330Z,4.56
2023-02-08T12:30:37.593Z,4.94
2023-02-08T12:37:29.013Z,6.07
2023-02-08T12:43:51.466Z,6.98
2023-02-08T12:50:03.866Z,7.80
2023-02-08T12:56:23.266Z,9.28
2023-02-08T13:03:19.039Z,9.28
2023-02-08T13:09:35.902Z,8.96
2023-02-08T13:15:48.989Z,8.47
2023-02-08T13:21:53.978Z,8.36
2023-02-08T13:27:59.734Z,8.14
2023-02-08T13:34:26.703Z,8.08
2023-02-08T13:40:35.198Z,8.00
2023-02-08T13:46:49.141Z,9.02
2023-02-08T13:52:52.470Z,9.74
2023-02-08T13:59:01.195Z,10.76
2023-02-08T14:05:34.552Z,11.04
2023-02-08T14:12:05.699Z,9.78
2023-02-08T14:18:27.050Z,8.65
2023-02-08T14:24:49.142Z,7.60
2023-02-08T14:30:54.737Z,7.11
2023-02-08T14:37:29.809Z,6.44
2023-02-08T14:43:39.227Z,6.09
2023-02-08T14:49:45.310Z,5.42
2023-02-08T14:56:01.094Z,5.13
2023-02-08T15:02:14.875Z,6.12
2023-02-08T15:08:21.031Z,5.92
2023-02-08T15:14:23.047Z,5.07
2023-02-08T15:20:29.638Z,4.45
2023-02-08T15:26:31.538Z,4.10
2023-02-08T15:32:33.940Z,3.66
2023-02-08T15:38:38.807Z,3.10
2023-02-08T15:44:44.422Z,2.48
2023-02-08T15:50:46.432Z,1.85
2023-02-08T15:56:58.993Z,1.63
2023-02-08T16:03:20.345Z,1.45
2023-02-08T16:09:28.461Z,1.00
2023-02-08T16:15:44.890Z,0.64
2023-02-08T16:21:47.397Z,0.38
2023-02-08T16:27:49.674Z,-0.08
2023-02-08T16:34:01.216Z,-0.28
2023-02-08T16:40:28.583Z,-0.46
2023-02-08T16:46:30.604Z,-0.69
2023-02-08T16:52:33.995Z,-0.84
2023-02-08T16:58:35.891Z,-0.87
2023-02-08T17:04:37.811Z,-1.20
2023-02-08T17:10:39.721Z,-1.24
2023-02-08T17:16:41.856Z,-1.15
2023-02-08T17:22:45.019Z,-1.11
2023-02-08T17:28:47.038Z,-1.21
2023-02-08T17:34:48.953Z,-1.32
2023-02-08T17:40:50.907Z,-1.21
2023-02-08T17:46:52.838Z,-0.98
2023-02-08T17:52:55.630Z,-0.87
2023-02-08T17:59:00.594Z,-0.78
2023-02-08T18:05:02.571Z,-0.61
2023-02-08T18:11:07.991Z,-0.48
2023-02-08T18:17:10.139Z,-0.60
2023-02-08T18:23:12.937Z,-0.71
2023-02-08T18:29:14.976Z,-0.79
2023-02-08T18:35:17.206Z,-0.80
2023-02-08T18:41:26.057Z,-0.79
2023-02-08T18:47:27.966Z,-0.74
2023-02-08T18:53:33.560Z,-0.72
2023-02-08T18:59:36.845Z,-0.90
2023-02-08T19:05:39.120Z,-0.96
2023-02-08T19:11:41.640Z,-0.88
2023-02-08T19:17:44.109Z,-1.20
2023-02-08T19:23:48.155Z,-1.08
2023-02-08T19:29:52.214Z,-0.90
2023-02-08T19:35:54.131Z,-1.00
2023-02-08T19:41:58.657Z,-1.06
2023-02-08T19:48:01.951Z,-1.40
2023-02-08T19:54:09.251Z,-1.42
2023-02-08T20:00:22.922Z,-1.27
2023-02-08T20:06:30.693Z,-1.28
2023-02-08T20:12:32.587Z,-1.48
2023-02-08T20:18:34.479Z,-1.57
2023-02-08T20:24:36.382Z,-1.68
2023-02-08T20:30:40.814Z,-1.71
2023-02-08T20:37:05.327Z,-1.74
2023-02-08T20:43:08.511Z,-1.83
2023-02-08T20:49:21.348Z,-2.02
2023-02-08T20:55:23.251Z,-2.08
2023-02-08T21:01:28.058Z,-2.22
2023-02-08T21:07:29.969Z,-2.24
2023-02-08T21:13:32.034Z,-2.30
2023-02-08T21:19:33.940Z,-2.32
2023-02-08T21:25:44.422Z,-2.56
2023-02-08T21:31:47.356Z,-2.60
2023-02-08T21:37:49.410Z,-2.62
2023-02-08T21:43:54.481Z,-2.82
2023-02-08T21:50:14.683Z,-2.72
2023-02-08T21:56:16.604Z,-2.82
2023-02-08T22:02:25.918Z,-2.83
2023-02-08T22:08:28.139Z,-2.82
2023-02-08T22:14:30.015Z,-2.79
2023-02-08T22:20:32.217Z,-2.95
2023-02-08T22:26:34.153Z,-3.03
2023-02-08T22:32:39.330Z,-2.95
2023-02-08T22:38:41.269Z,-3.00
2023-02-08T22:44:45.244Z,-3.04
2023-02-08T22:50:47.460Z,-2.94
2023-02-08T22:56:49.686Z,-2.96
2023-02-08T23:02:51.645Z,-3.08
2023-02-08T23:08:53.748Z,-3.15
2023-02-08T23:14:56.017Z,-3.17
2023-02-08T23:20:58.010Z,-3.29
2023-02-08T23:27:00.138Z,-3.34
2023-02-08T23:33:02.022Z,-3.28
2023-02-08T23:39:04.435Z,-3.35
2023-02-08T23:45:07.297Z,-3.47
2023-02-08T23:51:09.786Z,-3.38
2023-02-08T23:57:11.845Z,-3.36
